Last 30 Days

OV-Belmont 8000'

Daily Data | America/Los_Angeles
as of 10/6/22 8:26 PM PDT
Date Daily Max Temp (°F) Time of Max Temp Daily Min Temp (°F) Time of Min Temp Daily Rain (In) Seasonal Rainfall (In) Wind Spd (mph) Daily Max Wind (mph) Time of Max Wind Max Wind Dir (°) Max RH (%) Min RH (%) Wet Bulb (°F) WetB Hrs <28F (hrs) MinBV Day (V)
10/5/22 71.2 1402 49.5 0452 0.00 178.50 2.0 15.0 1335 WSW | 255 58 24 44.0 0.0 13.1
10/4/22 69.2 1212 47.4 0642 0.00 178.50 2.6 16.4 1424 NW | 311 50 21 42.6 0.0 13.1
10/3/22 66.8 1556 45.1 0622 0.00 178.50 2.1 15.1 1105 SE | 131 67 20 42.1 0.0 13.2
10/2/22 64.1 1322 44.8 0309 0.00 178.50 4.5 16.4 1420 NW | 304 81 25 43.0 0.0 13.2
10/1/22 67.0 1400 39.6 0652 0.00 178.50 2.6 17.1 1602 WNW | 300 78 32 42.8 0.0 13.2
9/30/22 66.9 1437 44.4 0704 0.00 178.50 1.6 9.6 1343 SSE | 153 65 29 42.4 0.0 13.2
9/29/22 62.5 1502 50.0 0625 0.00 178.50 10.2 34.8 0453 S | 170 54 30 42.7 0.0 13.2
9/28/22 63.3 1233 49.6 2241 0.00 178.50 9.5 39.5 1328 WSW | 256 52 28 42.6 0.0 13.1
9/27/22 68.5 1347 53.5 2243 0.00 178.50 10.0 26.8 1819 WSW | 243 57 11 46.5 0.0 13.1
9/26/22 71.7 1612 54.9 0115 0.00 178.50 5.1 24.2 1600 SSE | 154 61 28 49.4 0.0 13.1
9/25/22 72.0 1356 50.6 0657 0.00 178.50 2.6 15.0 1406 SSW | 195 61 27 46.3 0.0 13.1
9/24/22 69.5 1433 47.1 0559 0.00 178.50 2.5 13.4 0702 S | 182 59 28 44.5 0.0 13.1
9/23/22 68.0 1558 40.4 0651 0.00 178.50 2.3 9.0 1330 ENE | 63 91 32 44.0 0.0 13.2
9/22/22 60.3 1453 35.1 0518 0.00 178.50 2.7 14.8 0244 ENE | 60 100 43 40.3 0.0 13.2
9/21/22 43.1 1006 33.5 1339 0.11 178.50 6.2 21.0 0040 S | 174 100 72 36.8 0.0 13.4
9/20/22 40.3 1421 35.4 0545 0.50 178.40 9.3 32.5 1645 E | 91 100 88 37.8 0.0 13.4
9/19/22 44.8 1401 33.4 0725 1.19 177.90 8.4 29.4 0020 ESE | 122 100 79 37.8 0.0 13.4
9/18/22 49.7 1439 36.0 2117 0.10 176.70 10.9 36.9 1111 SE | 140 97 42 36.4 0.0 13.3
9/17/22 56.8 1218 39.5 2357 0.01 176.60 9.8 31.5 2213 SSE | 163 80 29 38.2 0.0 13.2
9/16/22 61.6 1214 42.8 2322 0.00 176.60 4.3 17.6 1517 WNW | 293 83 20 39.7 0.0 13.1
9/15/22 59.7 1145 43.0 0646 0.00 176.60 7.4 23.0 0140 SW | 235 76 24 39.2 0.0 13.2
9/14/22 58.1 1228 44.2 0628 0.00 176.60 10.6 29.4 0031 E | 82 78 37 41.3 0.0 13.2
9/13/22 61.6 1359 45.3 2108 0.00 176.60 8.3 25.2 2354 SSW | 207 91 30 44.6 0.0 13.1
9/12/22 60.6 0953 50.5 2112 0.08 176.60 5.5 16.9 1351 SSW | 202 96 53 49.9 0.0 13.2
9/11/22 73.6 1205 54.8 2359 0.00 176.50 5.0 19.4 1629 SW | 233 75 31 48.8 0.0 13.0
9/10/22 72.3 1414 58.3 0621 0.00 176.50 3.7 19.4 1644 SW | 231 53 24 49.2 0.0 13.0
9/9/22 76.4 1348 56.6 0649 0.00 176.50 1.2 7.5 1558 S | 184 45 18 48.5 0.0 13.0
9/8/22 81.3 1343 62.2 0619 0.00 176.50 3.8 19.1 1657 SSW | 212 41 19 51.1 0.0 13.0
9/7/22 83.4 1124 64.8 2344 0.00 176.50 3.4 17.1 1529 NW | 313 38 20 52.0 0.0 13.0
9/6/22 84.7 1426 65.6 2240 0.00 176.50 4.4 26.6 1839 SSE | 162 39 16 52.5 0.0 13.0
Max 84.7 - 65.6 - 1.19 178.50 10.9 39.5 - - 100 88 52.5 0.0 13.4
Avg - - - - - - 5.4 - - - - - 43.9 - -
Min 40.3 - 33.4 - 0.00 176.50 1.2 7.5 - - 38 11 36.4 0.0 13.0